createdAt,value
2023-03-04T00:02:10.034Z,7.40
2023-03-04T00:04:36.529Z,9.93
2023-03-04T00:07:03.640Z,6.17
2023-03-04T00:09:31.688Z,10.37
2023-03-04T00:11:58.870Z,8.83
2023-03-04T00:14:26.645Z,7.17
2023-03-04T00:16:54.299Z,7.77
2023-03-04T00:19:21.258Z,6.47
2023-03-04T00:21:47.760Z,12.90
2023-03-04T00:24:14.526Z,10.13
2023-03-04T00:26:42.510Z,8.43
2023-03-04T00:29:09.191Z,8.97
2023-03-04T00:31:35.794Z,10.03
2023-03-04T00:34:02.264Z,5.13
2023-03-04T00:36:29.392Z,8.87
2023-03-04T00:38:55.885Z,7.80
2023-03-04T00:41:22.835Z,7.50
2023-03-04T00:43:49.982Z,7.53
2023-03-04T00:46:17.070Z,7.30
2023-03-04T00:48:44.866Z,5.33
2023-03-04T00:51:11.447Z,9.27
2023-03-04T00:53:38.056Z,8.60
2023-03-04T00:56:04.754Z,10.30
2023-03-04T00:58:31.740Z,7.37
2023-03-04T01:00:58.266Z,9.07
2023-03-04T01:03:26.920Z,9.83
2023-03-04T01:05:53.390Z,9.47
2023-03-04T01:08:19.872Z,9.83
2023-03-04T01:10:46.342Z,5.93
2023-03-04T01:13:12.817Z,9.50
2023-03-04T01:15:39.435Z,7.23
2023-03-04T01:18:05.934Z,10.70
2023-03-04T01:20:32.419Z,7.93
2023-03-04T01:22:58.894Z,13.33
2023-03-04T01:25:25.550Z,8.80
2023-03-04T01:27:52.007Z,8.13
2023-03-04T01:30:18.516Z,8.63
2023-03-04T01:32:44.989Z,8.33
2023-03-04T01:35:11.658Z,11.17
2023-03-04T01:37:38.290Z,10.27
2023-03-04T01:40:05.822Z,7.43
2023-03-04T01:42:34.948Z,7.00
2023-03-04T01:45:01.765Z,7.87
2023-03-04T01:47:29.973Z,7.67
2023-03-04T01:49:57.590Z,8.33
2023-03-04T01:52:24.674Z,10.70
2023-03-04T01:54:51.168Z,7.40
2023-03-04T01:57:26.750Z,12.80
2023-03-04T02:00:18.596Z,7.83
2023-03-04T02:02:45.686Z,11.53
2023-03-04T02:05:12.598Z,7.37
2023-03-04T02:07:39.100Z,11.27
2023-03-04T02:10:06.053Z,7.53
2023-03-04T02:12:32.860Z,8.50
2023-03-04T02:14:59.400Z,7.27
2023-03-04T02:17:27.007Z,7.13
2023-03-04T02:19:59.987Z,12.80
2023-03-04T02:22:27.112Z,11.23
2023-03-04T02:24:59.455Z,8.60
2023-03-04T02:27:27.282Z,9.43
2023-03-04T02:29:53.817Z,11.27
2023-03-04T02:32:20.382Z,8.20
2023-03-04T02:34:49.405Z,10.07
2023-03-04T02:37:17.464Z,7.93
2023-03-04T02:39:45.760Z,9.33
2023-03-04T02:42:12.743Z,9.87
2023-03-04T02:44:43.779Z,11.13
2023-03-04T02:47:11.744Z,10.07
2023-03-04T02:49:40.008Z,8.87
2023-03-04T02:52:09.439Z,8.87
2023-03-04T02:54:37.340Z,8.23
2023-03-04T02:57:06.963Z,6.93
2023-03-04T02:59:33.950Z,10.00
2023-03-04T03:02:00.489Z,8.60
2023-03-04T03:04:27.157Z,8.60
2023-03-04T03:06:53.692Z,10.57
2023-03-04T03:09:20.270Z,7.17
2023-03-04T03:11:46.927Z,8.07
2023-03-04T03:14:13.429Z,11.30
2023-03-04T03:16:39.899Z,6.87
2023-03-04T03:19:06.388Z,8.50
2023-03-04T03:21:32.839Z,10.17
2023-03-04T03:23:59.355Z,11.47
2023-03-04T03:26:25.963Z,12.73
2023-03-04T03:28:52.434Z,11.77
2023-03-04T03:31:20.063Z,10.97
2023-03-04T03:33:46.779Z,10.80
2023-03-04T03:36:13.345Z,7.23
2023-03-04T03:38:39.849Z,11.23
2023-03-04T03:41:06.310Z,9.50
2023-03-04T03:43:32.799Z,12.70
2023-03-04T03:45:59.326Z,11.53
2023-03-04T03:48:25.795Z,9.33
2023-03-04T03:50:52.270Z,11.13
2023-03-04T03:53:18.748Z,11.37
2023-03-04T03:55:45.227Z,8.47
2023-03-04T03:58:11.756Z,13.73
2023-03-04T04:00:38.243Z,9.67
2023-03-04T04:03:04.757Z,13.40
2023-03-04T04:05:31.376Z,14.40
2023-03-04T04:07:57.819Z,13.27
2023-03-04T04:10:24.318Z,14.83
2023-03-04T04:12:50.799Z,10.27
2023-03-04T04:15:17.249Z,12.90
2023-03-04T04:17:43.722Z,16.93
2023-03-04T04:20:10.761Z,12.63
2023-03-04T04:22:37.213Z,15.50
2023-03-04T04:25:05.111Z,14.93
2023-03-04T04:27:31.596Z,14.10
2023-03-04T04:29:58.104Z,19.47
2023-03-04T04:32:24.604Z,18.53
2023-03-04T04:34:51.114Z,17.73
2023-03-04T04:37:17.577Z,15.57
2023-03-04T04:39:44.076Z,14.57
2023-03-04T04:42:11.499Z,16.40
2023-03-04T04:44:39.102Z,19.23
2023-03-04T04:47:09.611Z,15.37
2023-03-04T04:49:36.081Z,14.40
2023-03-04T04:52:02.762Z,17.70
2023-03-04T04:54:29.252Z,20.17
2023-03-04T04:56:55.753Z,21.83
2023-03-04T04:59:23.383Z,20.10
2023-03-04T05:01:49.892Z,27.47
2023-03-04T05:04:16.386Z,24.10
2023-03-04T05:06:43.130Z,20.07
2023-03-04T05:09:09.667Z,17.87
2023-03-04T05:11:36.145Z,19.20
2023-03-04T05:14:02.614Z,17.13
2023-03-04T05:16:29.083Z,21.90
2023-03-04T05:18:55.531Z,18.97
2023-03-04T05:21:22.037Z,24.97
2023-03-04T05:23:48.644Z,21.37
2023-03-04T05:26:16.769Z,18.13
2023-03-04T05:28:43.468Z,12.37
2023-03-04T05:31:10.757Z,19.00
2023-03-04T05:33:37.499Z,17.57
2023-03-04T05:36:05.511Z,12.73
2023-03-04T05:38:32.296Z,14.77
2023-03-04T05:41:04.097Z,12.37
2023-03-04T05:43:31.589Z,12.70
2023-03-04T05:45:58.169Z,15.17
2023-03-04T05:48:24.615Z,7.97
2023-03-04T05:50:55.558Z,14.07
2023-03-04T05:53:22.857Z,11.03
2023-03-04T05:55:49.789Z,13.50
2023-03-04T05:58:16.984Z,11.60
2023-03-04T06:00:43.694Z,12.57
2023-03-04T06:03:18.710Z,11.23
2023-03-04T06:05:45.260Z,12.27
2023-03-04T06:08:12.708Z,13.37
2023-03-04T06:10:40.340Z,15.20
2023-03-04T06:13:07.258Z,14.93
2023-03-04T06:15:34.211Z,13.90
2023-03-04T06:18:00.680Z,12.93
2023-03-04T06:20:27.220Z,16.40
2023-03-04T06:22:53.700Z,10.50
2023-03-04T06:25:20.629Z,11.13
2023-03-04T06:27:48.018Z,14.33
2023-03-04T06:30:16.291Z,14.03
2023-03-04T06:32:44.404Z,13.87
2023-03-04T06:35:12.037Z,13.83
2023-03-04T06:37:38.638Z,13.57
2023-03-04T06:40:07.675Z,11.43
2023-03-04T06:42:35.265Z,15.23
2023-03-04T06:45:01.869Z,12.07
2023-03-04T06:47:28.398Z,17.50
2023-03-04T06:49:54.867Z,12.17
2023-03-04T06:52:21.317Z,11.53
2023-03-04T06:54:47.791Z,16.93
2023-03-04T06:57:14.318Z,17.93
2023-03-04T06:59:40.834Z,16.13
2023-03-04T07:02:11.319Z,16.63
2023-03-04T07:04:38.112Z,17.87
2023-03-04T07:07:04.636Z,17.10
2023-03-04T07:09:31.153Z,16.40
2023-03-04T07:11:57.668Z,19.03
2023-03-04T07:14:24.385Z,15.63
2023-03-04T07:16:50.892Z,17.30
2023-03-04T07:19:17.869Z,18.87
2023-03-04T07:21:44.428Z,17.37
2023-03-04T07:24:10.924Z,19.30
2023-03-04T07:26:38.329Z,19.23
2023-03-04T07:29:05.262Z,12.20
2023-03-04T07:31:33.731Z,17.17
2023-03-04T07:34:02.424Z,15.13
2023-03-04T07:36:29.086Z,17.93
2023-03-04T07:38:55.703Z,23.00
2023-03-04T07:41:24.116Z,19.23
2023-03-04T07:43:51.075Z,16.57
2023-03-04T07:46:18.604Z,25.73
2023-03-04T07:48:45.098Z,28.73
2023-03-04T07:51:14.312Z,22.30
2023-03-04T07:53:42.483Z,24.63
2023-03-04T07:56:12.256Z,20.07
2023-03-04T07:58:38.747Z,22.67
2023-03-04T08:01:10.625Z,22.70
2023-03-04T08:03:37.108Z,19.90
2023-03-04T08:06:12.562Z,17.07
2023-03-04T08:08:39.261Z,15.47
2023-03-04T08:11:12.450Z,18.40
2023-03-04T08:13:38.923Z,20.20
2023-03-04T08:16:06.080Z,18.77
2023-03-04T08:18:32.770Z,15.53
2023-03-04T08:20:59.690Z,22.67
2023-03-04T08:23:27.029Z,21.77
2023-03-04T08:25:53.528Z,18.40
2023-03-04T08:28:20.123Z,17.80
2023-03-04T08:30:52.775Z,18.83
2023-03-04T08:33:19.269Z,21.73
2023-03-04T08:35:45.772Z,21.83
2023-03-04T08:38:12.255Z,17.57
2023-03-04T08:40:38.731Z,20.27
2023-03-04T08:43:07.173Z,28.30
2023-03-04T08:45:34.798Z,19.87
2023-03-04T08:48:01.253Z,22.57
2023-03-04T08:50:28.005Z,18.93
2023-03-04T08:52:54.991Z,22.93
2023-03-04T08:55:21.793Z,20.60
2023-03-04T08:57:48.238Z,16.67
2023-03-04T09:00:15.149Z,21.43
2023-03-04T09:02:41.607Z,17.17
2023-03-04T09:05:08.795Z,16.87
2023-03-04T09:07:36.017Z,24.73
2023-03-04T09:10:02.623Z,22.30
2023-03-04T09:12:29.114Z,22.43
2023-03-04T09:15:09.819Z,16.90
2023-03-04T09:17:40.406Z,23.47
2023-03-04T09:20:11.432Z,17.47
2023-03-04T09:22:38.989Z,21.77
2023-03-04T09:25:08.920Z,18.50
2023-03-04T09:27:38.012Z,22.37
2023-03-04T09:30:05.206Z,19.07
2023-03-04T09:32:31.730Z,14.23
2023-03-04T09:34:58.255Z,20.43
2023-03-04T09:37:24.740Z,18.27
2023-03-04T09:39:51.330Z,19.60
2023-03-04T09:42:47.772Z,22.83
2023-03-04T09:45:19.014Z,23.47
2023-03-04T09:47:46.506Z,16.00
2023-03-04T09:50:13.603Z,17.63
2023-03-04T09:53:07.637Z,16.73
2023-03-04T09:55:38.332Z,15.63
2023-03-04T09:58:17.016Z,17.13
2023-03-04T10:01:00.612Z,13.53
2023-03-04T10:04:12.311Z,14.53
2023-03-04T10:06:39.835Z,16.57
2023-03-04T10:09:13.096Z,22.20
2023-03-04T10:11:46.733Z,17.50
2023-03-04T10:14:16.198Z,15.80
2023-03-04T10:16:45.849Z,16.23
2023-03-04T10:19:15.485Z,17.67
2023-03-04T10:21:44.728Z,17.43
2023-03-04T10:24:22.681Z,12.80
2023-03-04T10:26:52.862Z,16.23
2023-03-04T10:29:22.071Z,20.57
2023-03-04T10:31:49.750Z,17.57
2023-03-04T10:34:17.794Z,17.73
2023-03-04T10:36:48.507Z,15.60
2023-03-04T10:39:32.891Z,14.67
2023-03-04T10:42:01.902Z,17.70
2023-03-04T10:44:29.447Z,14.73
2023-03-04T10:46:58.146Z,15.70
2023-03-04T10:49:25.678Z,15.80
2023-03-04T10:52:26.987Z,18.03
2023-03-04T10:54:58.900Z,14.03
2023-03-04T10:57:42.261Z,17.50
2023-03-04T11:00:17.910Z,11.70
2023-03-04T11:02:46.010Z,13.63
2023-03-04T11:05:12.401Z,17.73
2023-03-04T11:07:57.524Z,19.87
2023-03-04T11:10:31.710Z,15.63
2023-03-04T11:13:18.406Z,15.53
2023-03-04T11:15:58.033Z,12.13
2023-03-04T11:18:34.150Z,16.37
2023-03-04T11:21:03.956Z,10.87
2023-03-04T11:24:13.381Z,17.23
2023-03-04T11:26:53.151Z,15.87
2023-03-04T11:30:02.015Z,12.70
2023-03-04T11:32:34.185Z,15.17
2023-03-04T11:35:32.482Z,20.83
2023-03-04T11:38:21.784Z,15.27
2023-03-04T11:40:54.674Z,11.70
2023-03-04T11:43:37.980Z,16.37
2023-03-04T11:46:42.507Z,14.13
2023-03-04T11:49:33.786Z,14.53
2023-03-04T11:52:18.506Z,14.63
2023-03-04T11:55:09.460Z,15.67
2023-03-04T11:57:52.228Z,17.00
2023-03-04T12:00:41.117Z,15.43
2023-03-04T12:03:26.362Z,17.30
2023-03-04T12:06:03.287Z,17.00
2023-03-04T12:08:39.069Z,17.63
2023-03-04T12:11:20.648Z,11.23
2023-03-04T12:14:14.860Z,15.30
2023-03-04T12:17:02.656Z,12.33
2023-03-04T12:19:59.800Z,15.83
2023-03-04T12:22:41.427Z,14.23
2023-03-04T12:25:29.895Z,11.93
2023-03-04T12:28:28.982Z,12.60
2023-03-04T12:31:10.057Z,8.07
2023-03-04T12:33:50.709Z,10.67
2023-03-04T12:36:23.305Z,8.63
2023-03-04T12:39:00.203Z,9.73
2023-03-04T12:41:29.555Z,10.67
2023-03-04T12:44:20.488Z,11.93
2023-03-04T12:47:11.632Z,10.77
2023-03-04T12:50:04.577Z,16.97
2023-03-04T12:52:40.899Z,12.80
2023-03-04T12:55:14.527Z,13.40
2023-03-04T12:57:41.120Z,12.63
2023-03-04T13:00:31.099Z,12.97
2023-03-04T13:03:26.284Z,10.80
2023-03-04T13:06:20.995Z,11.10
2023-03-04T13:08:54.863Z,13.93
2023-03-04T13:11:28.180Z,14.23
2023-03-04T13:14:18.352Z,11.77
2023-03-04T13:16:48.972Z,14.07
2023-03-04T13:19:45.040Z,9.80
2023-03-04T13:22:38.942Z,11.50
2023-03-04T13:25:30.857Z,9.47
2023-03-04T13:28:00.561Z,13.50
2023-03-04T13:30:34.697Z,15.90
2023-03-04T13:33:11.065Z,14.57
2023-03-04T13:35:47.265Z,12.07
2023-03-04T13:38:24.607Z,13.53
2023-03-04T13:41:00.622Z,14.67
2023-03-04T13:43:36.777Z,14.50
2023-03-04T13:46:24.113Z,15.33
2023-03-04T13:48:50.788Z,12.97
2023-03-04T13:51:41.571Z,16.63
2023-03-04T13:54:14.932Z,13.53
2023-03-04T13:56:42.836Z,12.13
2023-03-04T13:59:09.318Z,13.93
2023-03-04T14:01:43.252Z,14.07
2023-03-04T14:04:29.632Z,15.47
2023-03-04T14:07:01.218Z,13.47
2023-03-04T14:09:30.713Z,15.17
2023-03-04T14:12:03.804Z,14.50
2023-03-04T14:14:37.540Z,16.77
2023-03-04T14:17:05.582Z,12.57
2023-03-04T14:19:43.917Z,13.00
2023-03-04T14:22:31.388Z,12.63
2023-03-04T14:25:03.773Z,11.47
2023-03-04T14:27:33.723Z,13.90
2023-03-04T14:30:02.010Z,16.07
2023-03-04T14:32:29.348Z,13.23
2023-03-04T14:35:07.763Z,14.10
2023-03-04T14:38:04.417Z,13.27
2023-03-04T14:40:39.063Z,11.93
2023-03-04T14:43:10.987Z,13.17
2023-03-04T14:45:37.652Z,22.70
2023-03-04T14:48:07.920Z,13.03
2023-03-04T14:50:36.174Z,14.23
2023-03-04T14:53:07.143Z,17.60
2023-03-04T14:55:33.830Z,13.87
2023-03-04T14:58:07.773Z,12.23
2023-03-04T15:00:42.053Z,17.67
2023-03-04T15:03:22.032Z,17.03
2023-03-04T15:05:49.225Z,13.30
2023-03-04T15:08:37.492Z,11.50
2023-03-04T15:11:06.101Z,13.57
2023-03-04T15:13:46.018Z,16.97
2023-03-04T15:16:14.726Z,11.70
2023-03-04T15:18:57.460Z,14.60
2023-03-04T15:21:31.740Z,13.30
2023-03-04T15:23:58.258Z,14.40
2023-03-04T15:26:24.846Z,15.20
2023-03-04T15:28:51.421Z,14.20
2023-03-04T15:31:21.104Z,18.33
2023-03-04T15:33:47.855Z,10.90
2023-03-04T15:36:16.845Z,14.00
2023-03-04T15:38:49.777Z,9.57
2023-03-04T15:41:23.520Z,14.70
2023-03-04T15:43:50.633Z,10.53
2023-03-04T15:46:18.136Z,13.93
2023-03-04T15:48:45.687Z,12.80
2023-03-04T15:51:21.524Z,8.13
2023-03-04T15:53:52.852Z,11.10
2023-03-04T15:56:21.490Z,10.03
2023-03-04T15:59:01.744Z,11.13
2023-03-04T16:01:28.277Z,8.40
2023-03-04T16:03:54.831Z,12.87
2023-03-04T16:06:23.564Z,12.23
2023-03-04T16:08:50.682Z,8.73
2023-03-04T16:11:19.391Z,11.50
2023-03-04T16:13:45.879Z,10.63
2023-03-04T16:16:13.400Z,7.70
2023-03-04T16:18:40.661Z,10.77
2023-03-04T16:21:08.388Z,13.23
2023-03-04T16:23:39.618Z,9.63
2023-03-04T16:26:12.455Z,9.30
2023-03-04T16:28:38.916Z,13.80
2023-03-04T16:31:06.577Z,8.10
2023-03-04T16:33:33.060Z,12.53
2023-03-04T16:35:59.678Z,6.67
2023-03-04T16:38:29.843Z,9.87
2023-03-04T16:40:57.041Z,8.40
2023-03-04T16:43:24.318Z,8.27
2023-03-04T16:45:50.808Z,10.33
2023-03-04T16:48:17.350Z,8.77
2023-03-04T16:50:44.572Z,7.63
2023-03-04T16:53:24.896Z,11.67
2023-03-04T16:55:51.678Z,7.60
2023-03-04T16:58:18.178Z,10.33
2023-03-04T17:00:44.701Z,10.43
2023-03-04T17:03:11.515Z,9.17
2023-03-04T17:05:38.108Z,9.37
2023-03-04T17:08:04.654Z,9.13
2023-03-04T17:10:31.127Z,7.63
2023-03-04T17:12:57.586Z,9.53
2023-03-04T17:15:24.194Z,9.40
2023-03-04T17:17:52.637Z,9.53
2023-03-04T17:20:19.854Z,9.27
2023-03-04T17:22:46.342Z,7.20
2023-03-04T17:25:14.120Z,8.63
2023-03-04T17:27:41.132Z,9.23
2023-03-04T17:30:11.377Z,7.73
2023-03-04T17:32:39.517Z,10.73
2023-03-04T17:35:08.086Z,8.57
2023-03-04T17:37:35.558Z,8.17
2023-03-04T17:40:08.601Z,8.07
2023-03-04T17:42:35.178Z,13.60
2023-03-04T17:45:01.681Z,7.47
2023-03-04T17:47:28.134Z,11.03
2023-03-04T17:49:54.623Z,8.93
2023-03-04T17:52:21.525Z,10.63
2023-03-04T17:54:48.081Z,10.33
2023-03-04T17:57:14.581Z,9.10
2023-03-04T17:59:41.130Z,6.87
2023-03-04T18:02:08.034Z,10.77
2023-03-04T18:04:35.297Z,10.60
2023-03-04T18:07:01.790Z,9.13
2023-03-04T18:09:28.274Z,8.97
2023-03-04T18:11:54.765Z,9.90
2023-03-04T18:14:21.285Z,9.50
2023-03-04T18:16:47.799Z,8.20
2023-03-04T18:19:15.837Z,12.50
2023-03-04T18:21:44.236Z,7.97
2023-03-04T18:24:10.752Z,10.27
2023-03-04T18:26:37.281Z,9.33
2023-03-04T18:29:03.759Z,11.97
2023-03-04T18:31:33.366Z,11.93
2023-03-04T18:34:04.217Z,9.97
2023-03-04T18:36:30.943Z,11.50
2023-03-04T18:38:59.402Z,11.10
2023-03-04T18:41:27.801Z,8.93
2023-03-04T18:43:54.877Z,8.07
2023-03-04T18:46:52.682Z,11.63
2023-03-04T18:49:20.443Z,8.63
2023-03-04T18:51:46.986Z,9.23
2023-03-04T18:54:13.483Z,6.67
2023-03-04T18:56:54.875Z,7.77
2023-03-04T18:59:25.025Z,8.17
2023-03-04T19:01:53.302Z,9.13
2023-03-04T19:04:22.398Z,5.80
2023-03-04T19:06:49.018Z,9.00
2023-03-04T19:09:15.541Z,8.87
2023-03-04T19:11:42.031Z,4.43
2023-03-04T19:14:08.490Z,6.37
2023-03-04T19:16:35.981Z,7.60
2023-03-04T19:19:02.527Z,7.50
2023-03-04T19:21:29.054Z,6.93
2023-03-04T19:23:55.564Z,9.03
2023-03-04T19:26:22.059Z,8.10
2023-03-04T19:28:49.503Z,8.63
2023-03-04T19:31:15.964Z,9.60
2023-03-04T19:33:42.435Z,11.33
2023-03-04T19:36:09.768Z,11.10
2023-03-04T19:38:36.682Z,11.90
2023-03-04T19:41:14.976Z,5.40
2023-03-04T19:43:41.441Z,5.70
2023-03-04T19:46:09.502Z,11.20
2023-03-04T19:48:37.234Z,14.37
2023-03-04T19:51:05.021Z,6.13
2023-03-04T19:53:34.616Z,8.57
2023-03-04T19:56:01.345Z,5.63
2023-03-04T19:58:27.825Z,9.40
2023-03-04T20:00:54.952Z,10.30
2023-03-04T20:03:22.129Z,4.80
2023-03-04T20:05:48.652Z,7.90
2023-03-04T20:08:15.159Z,5.43
2023-03-04T20:10:41.655Z,6.43
2023-03-04T20:13:08.975Z,8.43
2023-03-04T20:15:35.815Z,6.93
2023-03-04T20:18:02.433Z,14.30
2023-03-04T20:20:29.317Z,8.23
2023-03-04T20:22:56.470Z,9.30
2023-03-04T20:25:23.685Z,8.37
2023-03-04T20:27:50.390Z,7.33
2023-03-04T20:30:17.948Z,10.03
2023-03-04T20:32:45.014Z,6.07
2023-03-04T20:35:14.989Z,7.13
2023-03-04T20:37:42.315Z,7.87
2023-03-04T20:40:11.011Z,9.97
2023-03-04T20:42:37.511Z,7.43
2023-03-04T20:45:04.661Z,6.57
2023-03-04T20:47:31.290Z,5.37
2023-03-04T20:49:57.872Z,11.60
2023-03-04T20:52:24.357Z,5.80
2023-03-04T20:54:50.802Z,8.43
2023-03-04T20:57:17.276Z,6.03
2023-03-04T20:59:43.865Z,9.33
2023-03-04T21:02:13.862Z,6.60
2023-03-04T21:04:40.475Z,8.60
2023-03-04T21:07:06.941Z,9.60
2023-03-04T21:09:33.453Z,5.80
2023-03-04T21:12:01.074Z,5.50
2023-03-04T21:14:30.061Z,7.23
2023-03-04T21:16:59.387Z,5.90
2023-03-04T21:19:28.214Z,9.57
2023-03-04T21:21:55.613Z,9.97
2023-03-04T21:24:24.809Z,8.07
2023-03-04T21:26:51.504Z,7.10
2023-03-04T21:29:20.145Z,11.47
2023-03-04T21:31:49.407Z,10.37
2023-03-04T21:34:22.117Z,10.00
2023-03-04T21:36:49.004Z,6.10
2023-03-04T21:39:17.601Z,7.83
2023-03-04T21:41:44.443Z,11.00
2023-03-04T21:44:18.191Z,9.93
2023-03-04T21:46:56.408Z,8.30
2023-03-04T21:49:22.898Z,11.27
2023-03-04T21:51:49.377Z,7.40
2023-03-04T21:54:16.315Z,9.73
2023-03-04T21:56:42.919Z,5.70
2023-03-04T21:59:13.477Z,5.20
2023-03-04T22:01:41.243Z,7.17
2023-03-04T22:04:08.255Z,11.17
2023-03-04T22:06:35.249Z,8.17
2023-03-04T22:09:03.682Z,7.87
2023-03-04T22:11:30.688Z,7.30
2023-03-04T22:13:59.976Z,9.50
2023-03-04T22:16:26.925Z,6.80
2023-03-04T22:18:53.617Z,7.90
2023-03-04T22:21:21.505Z,8.00
2023-03-04T22:23:48.353Z,9.37
2023-03-04T22:26:15.761Z,7.43
2023-03-04T22:28:42.395Z,5.87
2023-03-04T22:31:31.339Z,8.40
2023-03-04T22:34:05.805Z,8.40
2023-03-04T22:36:35.436Z,11.33
2023-03-04T22:39:04.792Z,8.10
2023-03-04T22:41:32.730Z,8.07
2023-03-04T22:44:00.043Z,9.67
2023-03-04T22:46:30.803Z,7.57
2023-03-04T22:49:01.710Z,11.33
2023-03-04T22:51:28.941Z,9.40
2023-03-04T22:54:00.659Z,9.30
2023-03-04T22:56:27.751Z,6.27
2023-03-04T22:58:57.119Z,5.80
2023-03-04T23:01:24.062Z,7.60
2023-03-04T23:03:52.554Z,7.37
2023-03-04T23:06:22.421Z,13.03
2023-03-04T23:08:51.426Z,7.50
2023-03-04T23:11:27.122Z,8.60
2023-03-04T23:13:57.634Z,7.87
2023-03-04T23:16:28.918Z,8.63
2023-03-04T23:18:57.126Z,14.03
2023-03-04T23:21:25.716Z,6.13
2023-03-04T23:23:52.741Z,7.63
2023-03-04T23:26:28.429Z,10.50
2023-03-04T23:28:57.200Z,9.33
2023-03-04T23:31:25.601Z,5.67
2023-03-04T23:33:57.704Z,7.50
2023-03-04T23:36:27.197Z,6.83
2023-03-04T23:38:54.860Z,10.13
2023-03-04T23:41:24.448Z,7.17
2023-03-04T23:43:52.890Z,10.30
2023-03-04T23:46:19.633Z,4.93
2023-03-04T23:48:46.887Z,9.97
2023-03-04T23:51:19.074Z,6.23
2023-03-04T23:53:46.177Z,11.23
2023-03-04T23:56:24.323Z,8.03
2023-03-04T23:58:51.109Z,12.43
